Time;durP1;ratioP1;P1;durP2;ratioP2;P2;SDS_P1;SDS_P2;PMS_P1;PMS_P2;Temp;Humidity;BMP_temperature;BMP_pressure;BME280_temperature;BME280_humidity;BME280_pressure;Samples;Min_cycle;Max_cycle;Signal;HPM_P1;HPM_P2
2021/04/26 00:00:20;;;;;;;10.83;8.80;;;;;;;;;;5093535;22;20526;-96
2021/04/26 00:02:46;;;;;;;10.40;8.03;;;;;;;;;;5047388;28;20446;-96
2021/04/26 00:05:15;;;;;;;12.77;8.50;;;;;;;;;;5050367;28;20532;-98
2021/04/26 00:07:50;;;;;;;14.60;9.20;;;;;;;;;;5060821;28;20534;-96
2021/04/26 00:10:17;;;;;;;14.10;8.63;;;;;;;;;;5052042;28;20557;-96
2021/04/26 00:12:43;;;;;;;14.10;8.90;;;;;;;;;;5046868;28;20491;-96
2021/04/26 00:15:10;;;;;;;12.33;9.30;;;;;;;;;;5050333;28;20455;-96
2021/04/26 00:17:38;;;;;;;14.70;9.90;;;;;;;;;;5054176;28;20463;-96
2021/04/26 00:20:05;;;;;;;10.53;8.93;;;;;;;;;;5054035;28;20580;-96
2021/04/26 00:22:31;;;;;;;12.13;8.63;;;;;;;;;;5056621;28;20456;-96
2021/04/26 00:24:57;;;;;;;12.00;9.67;;;;;;;;;;5036566;28;20876;-96
2021/04/26 00:27:23;;;;;;;12.10;8.70;;;;;;;;;;5060591;28;20439;-96
2021/04/26 00:29:49;;;;;;;9.67;8.40;;;;;;;;;;5054780;28;20446;-96
2021/04/26 00:32:15;;;;;;;14.30;9.47;;;;;;;;;;5057857;28;20487;-96
2021/04/26 00:34:42;;;;;;;11.83;10.00;;;;;;;;;;5059745;28;20439;-96
2021/04/26 00:37:08;;;;;;;11.17;9.10;;;;;;;;;;5058416;28;20458;-96
2021/04/26 00:39:34;;;;;;;15.10;9.63;;;;;;;;;;5051620;28;21146;-96
2021/04/26 00:42:00;;;;;;;12.33;9.97;;;;;;;;;;5047320;28;20529;-96
2021/04/26 00:44:27;;;;;;;13.13;10.93;;;;;;;;;;5063007;28;20527;-96
2021/04/26 00:46:53;;;;;;;14.77;10.77;;;;;;;;;;5026837;28;20518;-96
2021/04/26 00:49:19;;;;;;;11.60;9.80;;;;;;;;;;5052581;28;20443;-96
2021/04/26 00:51:46;;;;;;;12.50;10.30;;;;;;;;;;5057159;28;20494;-96
2021/04/26 00:54:12;;;;;;;15.87;11.17;;;;;;;;;;5061387;28;20438;-96
2021/04/26 00:56:38;;;;;;;15.03;11.07;;;;;;;;;;5054910;28;20446;-96
2021/04/26 00:59:04;;;;;;;11.57;9.53;;;;;;;;;;5066452;28;20469;-96
2021/04/26 01:01:30;;;;;;;12.33;9.17;;;;;;;;;;5058483;28;20453;-96
2021/04/26 01:03:56;;;;;;;14.27;10.70;;;;;;;;;;5050809;28;20447;-96
2021/04/26 01:06:23;;;;;;;17.57;11.87;;;;;;;;;;5073046;28;20458;-96
2021/04/26 01:08:50;;;;;;;16.50;11.33;;;;;;;;;;5067043;28;20838;-96
2021/04/26 01:11:16;;;;;;;17.30;11.53;;;;;;;;;;5060094;28;20475;-96
2021/04/26 01:13:44;;;;;;;18.03;12.23;;;;;;;;;;5061103;28;20528;-96
2021/04/26 01:16:13;;;;;;;15.73;11.33;;;;;;;;;;5058775;28;20505;-96
2021/04/26 01:18:44;;;;;;;16.43;11.70;;;;;;;;;;5061784;28;20499;-96
2021/04/26 01:21:28;;;;;;;15.30;10.53;;;;;;;;;;5074249;28;20453;-96
2021/04/26 01:24:11;;;;;;;12.53;10.33;;;;;;;;;;5055432;28;20459;-96
2021/04/26 01:26:41;;;;;;;15.57;11.63;;;;;;;;;;5072581;28;20541;-96
2021/04/26 01:29:13;;;;;;;16.20;11.20;;;;;;;;;;5056530;28;20450;-96
2021/04/26 01:37:40;;;;;;;13.77;9.77;;;;;;;;;;5059829;22;20476;-96
2021/04/26 01:40:08;;;;;;;16.53;9.80;;;;;;;;;;5099268;28;20433;-96
2021/04/26 01:42:36;;;;;;;13.00;11.23;;;;;;;;;;5099318;28;20471;-96
2021/04/26 01:45:03;;;;;;;13.27;10.30;;;;;;;;;;5093933;28;20449;-96
2021/04/26 01:47:30;;;;;;;11.87;9.57;;;;;;;;;;5078361;28;20437;-96
2021/04/26 01:49:56;;;;;;;14.17;10.70;;;;;;;;;;5098582;28;20449;-96
2021/04/26 01:52:22;;;;;;;15.57;10.57;;;;;;;;;;5101037;28;20473;-96
2021/04/26 01:54:50;;;;;;;13.90;10.00;;;;;;;;;;5098183;28;20506;-96
2021/04/26 01:57:16;;;;;;;17.40;11.87;;;;;;;;;;5097874;28;20433;-96
2021/04/26 01:59:43;;;;;;;13.70;11.50;;;;;;;;;;5100504;28;20432;-96
2021/04/26 02:12:30;;;;;;;17.00;12.13;;;;;;;;;;5094867;28;20510;-96
2021/04/26 02:14:56;;;;;;;19.43;12.37;;;;;;;;;;5096925;28;20446;-96
2021/04/26 02:17:23;;;;;;;16.83;12.23;;;;;;;;;;5099562;28;20436;-96
2021/04/26 02:19:50;;;;;;;16.93;12.33;;;;;;;;;;5097959;28;20461;-96
2021/04/26 02:22:17;;;;;;;14.80;12.00;;;;;;;;;;5093408;28;20446;-96
2021/04/26 02:24:43;;;;;;;15.37;11.63;;;;;;;;;;5091360;28;20449;-96
2021/04/26 02:27:09;;;;;;;19.03;11.90;;;;;;;;;;5080955;28;20461;-96
2021/04/26 02:29:36;;;;;;;17.17;11.70;;;;;;;;;;5090851;28;20450;-96
2021/04/26 02:32:06;;;;;;;20.63;12.00;;;;;;;;;;5088944;28;20488;-96
2021/04/26 02:34:35;;;;;;;16.80;11.90;;;;;;;;;;5097084;28;20460;-96
2021/04/26 02:37:03;;;;;;;18.50;12.50;;;;;;;;;;5095876;28;20454;-96
2021/04/26 02:39:31;;;;;;;15.30;12.30;;;;;;;;;;5091830;28;20460;-96
2021/04/26 02:41:58;;;;;;;21.07;16.00;;;;;;;;;;5093436;28;20425;-96
2021/04/26 02:44:25;;;;;;;19.50;14.80;;;;;;;;;;5096903;28;20449;-96
2021/04/26 02:46:53;;;;;;;18.60;16.00;;;;;;;;;;5097918;28;20469;-96
2021/04/26 02:49:20;;;;;;;18.90;14.63;;;;;;;;;;5097429;28;20438;-96
2021/04/26 02:51:47;;;;;;;18.00;13.20;;;;;;;;;;5096983;28;20468;-96
2021/04/26 02:54:14;;;;;;;21.80;15.30;;;;;;;;;;5096311;28;20445;-96
2021/04/26 02:56:41;;;;;;;18.07;14.73;;;;;;;;;;5094007;28;20441;-96
2021/04/26 02:59:08;;;;;;;20.30;15.20;;;;;;;;;;5089242;28;20465;-96
2021/04/26 03:01:35;;;;;;;19.97;15.03;;;;;;;;;;5091460;28;20445;-96
2021/04/26 03:04:03;;;;;;;20.93;14.70;;;;;;;;;;5099445;28;20440;-96
2021/04/26 03:08:57;;;;;;;22.10;15.85;;;;;;;;;;5472025;22;20537;-96
2021/04/26 03:11:25;;;;;;;20.10;14.40;;;;;;;;;;5058010;28;20234;-96
2021/04/26 03:13:51;;;;;;;17.27;13.97;;;;;;;;;;5058717;28;20552;-96
2021/04/26 03:16:17;;;;;;;18.00;13.93;;;;;;;;;;5075350;28;20446;-96
2021/04/26 03:18:44;;;;;;;19.73;14.60;;;;;;;;;;5075473;28;20465;-96
2021/04/26 03:21:12;;;;;;;20.73;13.77;;;;;;;;;;5079448;28;20488;-96
2021/04/26 03:23:39;;;;;;;20.70;12.97;;;;;;;;;;5079326;28;20430;-96
2021/04/26 03:44:18;;;;;;;14.43;11.67;;;;;;;;;;5190325;22;20520;-96
2021/04/26 03:46:49;;;;;;;15.93;10.90;;;;;;;;;;5082110;28;20430;-95
2021/04/26 03:49:15;;;;;;;15.60;11.80;;;;;;;;;;5077923;28;20473;-96
2021/04/26 03:51:41;;;;;;;15.40;12.35;;;;;;;;;;5077602;28;20489;-96
2021/04/26 03:54:07;;;;;;;20.20;13.43;;;;;;;;;;5057615;28;20249;-96
2021/04/26 04:01:45;;;;;;;20.50;15.17;;;;;;;;;;5180226;22;20473;-96
2021/04/26 04:04:23;;;;;;;20.90;16.17;;;;;;;;;;5079837;28;20457;-96
2021/04/26 04:17:03;;;;;;;21.00;15.10;;;;;;;;;;5069050;28;20505;-96
2021/04/26 04:19:29;;;;;;;23.37;17.73;;;;;;;;;;5074484;28;20445;-96
2021/04/26 04:21:55;;;;;;;55.47;30.83;;;;;;;;;;5075877;28;20434;-96
2021/04/26 04:24:22;;;;;;;58.37;32.77;;;;;;;;;;5075821;28;20449;-96
2021/04/26 04:26:48;;;;;;;28.43;18.90;;;;;;;;;;5074437;28;20636;-96
2021/04/26 04:29:15;;;;;;;27.03;17.70;;;;;;;;;;5070181;28;20533;-96
2021/04/26 04:31:41;;;;;;;24.73;16.93;;;;;;;;;;5071694;28;20573;-96
2021/04/26 04:34:08;;;;;;;23.63;16.77;;;;;;;;;;5065962;28;20450;-96
2021/04/26 04:36:34;;;;;;;22.73;16.30;;;;;;;;;;5076025;28;20442;-96
2021/04/26 04:39:03;;;;;;;24.37;16.37;;;;;;;;;;5072220;28;20454;-96
2021/04/26 04:41:30;;;;;;;21.03;16.00;;;;;;;;;;5074633;28;20467;-95
2021/04/26 04:43:56;;;;;;;24.47;17.50;;;;;;;;;;5079024;28;20429;-92
2021/04/26 04:48:56;;;;;;;23.20;15.70;;;;;;;;;;5203894;22;20558;-96
2021/04/26 04:51:23;;;;;;;22.43;16.20;;;;;;;;;;5060816;28;20520;-96
2021/04/26 04:53:53;;;;;;;22.20;15.37;;;;;;;;;;5079117;28;20452;-96
2021/04/26 05:09:58;;;;;;;17.70;14.53;;;;;;;;;;5375833;22;21659;-95
2021/04/26 05:12:24;;;;;;;18.77;13.97;;;;;;;;;;5082510;28;20466;-96
2021/04/26 05:17:23;;;;;;;22.73;15.20;;;;;;;;;;5125478;22;20521;-96
2021/04/26 05:22:25;;;;;;;17.70;14.00;;;;;;;;;;5978884;22;20502;-96
2021/04/26 05:24:59;;;;;;;22.20;14.60;;;;;;;;;;5062405;28;20439;-96
2021/04/26 05:27:25;;;;;;;22.77;16.00;;;;;;;;;;5062763;28;20419;-93
2021/04/26 05:32:48;;;;;;;16.60;14.03;;;;;;;;;;5119265;23;20488;-96
2021/04/26 05:35:15;;;;;;;17.30;13.90;;;;;;;;;;5101750;28;20433;-94
2021/04/26 05:37:41;;;;;;;19.00;15.17;;;;;;;;;;5102444;28;20432;-94
2021/04/26 05:45:54;;;;;;;19.83;15.70;;;;;;;;;;5105194;22;20485;-96
2021/04/26 06:07:53;;;;;;;16.10;13.30;;;;;;;;;;1088491;22;20771;-96
2021/04/26 06:15:43;;;;;;;17.67;12.90;;;;;;;;;;5985573;22;20483;-96
2021/04/26 06:18:10;;;;;;;22.50;13.90;;;;;;;;;;5062124;28;20462;-93
2021/04/26 06:20:36;;;;;;;18.87;12.50;;;;;;;;;;5088258;28;20465;-96
2021/04/26 06:23:03;;;;;;;16.87;12.90;;;;;;;;;;5094710;28;20470;-95
2021/04/26 06:25:29;;;;;;;17.97;11.70;;;;;;;;;;5098668;28;20431;-96
2021/04/26 06:27:56;;;;;;;16.40;11.63;;;;;;;;;;5112266;22;20475;-96
2021/04/26 06:30:22;;;;;;;13.77;11.20;;;;;;;;;;5076251;28;20453;-96
2021/04/26 06:32:49;;;;;;;13.40;12.00;;;;;;;;;;5052856;28;20488;-96
2021/04/26 06:35:15;;;;;;;16.00;12.33;;;;;;;;;;5101932;22;20508;-96
2021/04/26 06:37:41;;;;;;;13.30;11.60;;;;;;;;;;5087648;28;20447;-96
2021/04/26 06:40:09;;;;;;;14.17;11.50;;;;;;;;;;5109684;28;20443;-95
2021/04/26 06:42:37;;;;;;;13.67;12.00;;;;;;;;;;5105498;23;20516;-96
2021/04/26 06:45:03;;;;;;;16.80;11.43;;;;;;;;;;5051085;28;20543;-93
2021/04/26 06:47:41;;;;;;;14.80;12.30;;;;;;;;;;5044898;28;20492;-96
2021/04/26 06:50:08;;;;;;;19.67;11.63;;;;;;;;;;5051833;28;20469;-96
2021/04/26 06:52:50;;;;;;;16.03;11.50;;;;;;;;;;5057049;28;20470;-96
2021/04/26 07:00:55;;;;;;;18.57;13.40;;;;;;;;;;5243051;22;20531;-96
2021/04/26 07:03:21;;;;;;;16.90;11.50;;;;;;;;;;5064952;28;20442;-96
2021/04/26 07:05:48;;;;;;;16.13;11.80;;;;;;;;;;5061893;28;20999;-96
2021/04/26 07:08:33;;;;;;;17.00;12.03;;;;;;;;;;5077809;28;20434;-96
2021/04/26 07:10:59;;;;;;;13.20;10.93;;;;;;;;;;5069198;28;20454;-96
2021/04/26 07:16:08;;;;;;;10.67;9.57;;;;;;;;;;5072299;22;20500;-96
2021/04/26 07:18:34;;;;;;;12.40;10.00;;;;;;;;;;5060529;28;20450;-96
2021/04/26 07:23:41;;;;;;;11.37;10.27;;;;;;;;;;5055653;28;20447;-96
2021/04/26 07:26:08;;;;;;;14.03;9.60;;;;;;;;;;5160967;22;20496;-96
2021/04/26 07:28:34;;;;;;;12.27;9.60;;;;;;;;;;5099216;28;20439;-96
2021/04/26 07:31:00;;;;;;;11.77;9.80;;;;;;;;;;5120163;22;20485;-96
2021/04/26 07:33:28;;;;;;;13.80;10.50;;;;;;;;;;5076264;28;20438;-96
2021/04/26 07:35:55;;;;;;;15.93;10.83;;;;;;;;;;5070943;28;20465;-96
2021/04/26 07:38:22;;;;;;;14.30;10.83;;;;;;;;;;5067632;28;20450;-96
2021/04/26 07:40:48;;;;;;;10.90;9.80;;;;;;;;;;5062297;28;20468;-96
2021/04/26 07:43:14;;;;;;;11.10;9.67;;;;;;;;;;5054913;28;21318;-96
2021/04/26 07:46:00;;;;;;;11.07;9.97;;;;;;;;;;5075394;28;20445;-96
2021/04/26 07:48:26;;;;;;;9.17;8.27;;;;;;;;;;5069262;28;20446;-95
2021/04/26 07:50:59;;;;;;;10.60;9.50;;;;;;;;;;5062614;28;20450;-96
2021/04/26 07:53:26;;;;;;;12.60;8.87;;;;;;;;;;5062798;28;20458;-96
2021/04/26 07:55:52;;;;;;;11.17;9.53;;;;;;;;;;5060037;28;20446;-96
2021/04/26 07:58:18;;;;;;;23.30;10.70;;;;;;;;;;5075303;23;20499;-96
2021/04/26 08:00:44;;;;;;;10.80;9.70;;;;;;;;;;5103271;28;20454;-96
2021/04/26 08:03:10;;;;;;;11.40;10.20;;;;;;;;;;5102605;28;21225;-96
2021/04/26 08:05:36;;;;;;;11.37;9.87;;;;;;;;;;5093898;22;20728;-96
2021/04/26 08:08:04;;;;;;;13.87;10.20;;;;;;;;;;5052006;28;20472;-96
2021/04/26 08:13:29;;;;;;;10.43;9.43;;;;;;;;;;5054500;28;20483;-96
2021/04/26 08:16:17;;;;;;;12.27;10.13;;;;;;;;;;5048430;28;20476;-96
2021/04/26 08:18:43;;;;;;;11.27;9.90;;;;;;;;;;5048967;28;20490;-96
2021/04/26 08:21:15;;;;;;;14.37;10.30;;;;;;;;;;5052100;28;20463;-96
2021/04/26 08:23:43;;;;;;;15.33;11.40;;;;;;;;;;5050102;28;20438;-96
2021/04/26 08:26:09;;;;;;;14.90;11.70;;;;;;;;;;5040736;28;20434;-96
2021/04/26 08:28:35;;;;;;;14.53;11.10;;;;;;;;;;5060832;23;20501;-96
2021/04/26 08:31:06;;;;;;;14.43;11.10;;;;;;;;;;5068273;28;20484;-96
2021/04/26 08:33:32;;;;;;;13.70;10.67;;;;;;;;;;5065983;28;20448;-96
2021/04/26 08:35:58;;;;;;;14.97;10.43;;;;;;;;;;5068016;28;20437;-96
2021/04/26 08:38:24;;;;;;;15.40;11.60;;;;;;;;;;5075921;28;20458;-96
2021/04/26 08:43:50;;;;;;;12.65;11.00;;;;;;;;;;5154385;22;20479;-95
2021/04/26 08:46:23;;;;;;;18.63;11.67;;;;;;;;;;5131454;22;20229;-96
2021/04/26 08:48:49;;;;;;;14.07;11.60;;;;;;;;;;5133755;27;20479;-96
2021/04/26 08:51:15;;;;;;;13.33;11.23;;;;;;;;;;5116205;28;20437;-96
2021/04/26 08:56:28;;;;;;;12.83;11.10;;;;;;;;;;5121646;22;20474;-96
2021/04/26 08:59:02;;;;;;;13.83;10.67;;;;;;;;;;5106168;28;20459;-96
2021/04/26 09:01:33;;;;;;;14.57;11.03;;;;;;;;;;5108020;28;20446;-96
2021/04/26 09:07:04;;;;;;;12.17;10.90;;;;;;;;;;5130736;22;20499;-96
2021/04/26 09:09:38;;;;;;;10.80;9.73;;;;;;;;;;5131995;28;20449;-96
2021/04/26 09:12:05;;;;;;;10.33;9.30;;;;;;;;;;5119866;28;20478;-96
2021/04/26 09:14:35;;;;;;;12.20;9.27;;;;;;;;;;5119160;28;20433;-96
2021/04/26 09:17:24;;;;;;;11.90;10.70;;;;;;;;;;5127581;28;20452;-96
2021/04/26 09:19:50;;;;;;;11.00;9.90;;;;;;;;;;5123794;27;20433;-96
2021/04/26 09:22:16;;;;;;;9.63;8.83;;;;;;;;;;5134181;28;20456;-96
2021/04/26 09:24:46;;;;;;;9.70;8.70;;;;;;;;;;5099430;23;20466;-96
2021/04/26 09:27:15;;;;;;;14.27;9.30;;;;;;;;;;5087486;28;20478;-96
2021/04/26 09:29:41;;;;;;;10.43;9.33;;;;;;;;;;5112504;23;20493;-95
2021/04/26 09:32:10;;;;;;;10.40;9.17;;;;;;;;;;5066633;28;20481;-96
2021/04/26 09:34:38;;;;;;;9.87;8.93;;;;;;;;;;5117323;22;20478;-96
2021/04/26 09:37:09;;;;;;;11.20;9.40;;;;;;;;;;5094269;28;20452;-96
2021/04/26 09:39:35;;;;;;;14.27;9.90;;;;;;;;;;5091499;28;21074;-96
2021/04/26 09:42:01;;;;;;;8.90;8.03;;;;;;;;;;5093460;28;20429;-96
2021/04/26 09:44:29;;;;;;;9.07;8.20;;;;;;;;;;5098422;22;20481;-96
2021/04/26 09:46:55;;;;;;;9.47;8.60;;;;;;;;;;5088821;28;20562;-96
2021/04/26 09:49:23;;;;;;;13.10;8.10;;;;;;;;;;5116673;28;20444;-95
2021/04/26 09:51:54;;;;;;;9.87;8.93;;;;;;;;;;5109500;28;20480;-95
2021/04/26 09:54:36;;;;;;;9.37;8.37;;;;;;;;;;5086838;28;20974;-94
2021/04/26 09:57:02;;;;;;;9.97;8.97;;;;;;;;;;5094829;28;20449;-95
2021/04/26 09:59:29;;;;;;;9.73;8.77;;;;;;;;;;5100991;28;20524;-93
2021/04/26 10:01:55;;;;;;;9.63;8.63;;;;;;;;;;5103772;28;20484;-94
2021/04/26 10:07:17;;;;;;;9.60;8.67;;;;;;;;;;5082565;22;20505;-96
2021/04/26 10:10:11;;;;;;;9.10;7.73;;;;;;;;;;5055226;28;20467;-96
2021/04/26 10:12:37;;;;;;;9.67;8.30;;;;;;;;;;5048614;28;20493;-96
2021/04/26 10:15:12;;;;;;;9.23;8.13;;;;;;;;;;5050692;28;20451;-96
2021/04/26 10:17:54;;;;;;;8.13;7.33;;;;;;;;;;5056671;28;20443;-96
2021/04/26 10:20:34;;;;;;;8.10;7.30;;;;;;;;;;5089039;22;20536;-96
2021/04/26 10:23:04;;;;;;;8.70;7.50;;;;;;;;;;5074741;28;20430;-96
2021/04/26 10:28:33;;;;;;;9.77;7.07;;;;;;;;;;5244808;22;20497;-96
2021/04/26 10:31:13;;;;;;;9.47;6.97;;;;;;;;;;5181194;22;20601;-95
2021/04/26 10:33:58;;;;;;;8.93;6.10;;;;;;;;;;5029766;28;20895;-96
2021/04/26 10:39:39;;;;;;;8.90;6.50;;;;;;;;;;5027577;28;20490;-96
2021/04/26 10:42:08;;;;;;;10.67;6.33;;;;;;;;;;5029939;28;20455;-96
2021/04/26 10:47:44;;;;;;;6.33;5.83;;;;;;;;;;5046007;28;20440;-96
2021/04/26 10:50:33;;;;;;;6.13;5.63;;;;;;;;;;5043369;28;20458;-96
2021/04/26 10:53:01;;;;;;;6.30;5.30;;;;;;;;;;5043572;28;21143;-96
2021/04/26 10:55:54;;;;;;;5.37;4.87;;;;;;;;;;5043966;28;20461;-96
2021/04/26 10:58:21;;;;;;;5.00;4.50;;;;;;;;;;5039736;28;20482;-95
2021/04/26 11:00:49;;;;;;;4.77;4.37;;;;;;;;;;5043531;28;20465;-96
2021/04/26 11:05:54;;;;;;;4.43;4.03;;;;;;;;;;5135420;23;21135;-96
2021/04/26 11:08:39;;;;;;;4.20;3.80;;;;;;;;;;5506175;22;20488;-96
2021/04/26 11:11:10;;;;;;;4.00;3.70;;;;;;;;;;5045396;28;20896;-96
2021/04/26 11:13:48;;;;;;;4.47;4.00;;;;;;;;;;5065263;28;20516;-96
2021/04/26 11:16:18;;;;;;;6.67;4.20;;;;;;;;;;5065920;28;20446;-96
2021/04/26 11:19:08;;;;;;;4.10;3.80;;;;;;;;;;5075013;28;20448;-96
2021/04/26 11:21:56;;;;;;;12.47;7.30;;;;;;;;;;5063093;28;20492;-96
2021/04/26 11:24:46;;;;;;;7.50;4.43;;;;;;;;;;5051990;28;20580;-96
2021/04/26 11:27:22;;;;;;;4.77;4.30;;;;;;;;;;5041384;28;20457;-95
2021/04/26 11:30:07;;;;;;;4.23;3.90;;;;;;;;;;5068384;28;20433;-96
2021/04/26 11:32:33;;;;;;;5.33;3.60;;;;;;;;;;5064265;28;20517;-95
2021/04/26 11:35:06;;;;;;;4.10;3.57;;;;;;;;;;5063538;28;20438;-95
2021/04/26 11:37:34;;;;;;;3.53;3.20;;;;;;;;;;5060286;28;20473;-95
2021/04/26 11:40:15;;;;;;;3.50;3.20;;;;;;;;;;5068524;28;20476;-96
2021/04/26 11:42:42;;;;;;;3.67;3.37;;;;;;;;;;5063630;28;20481;-96
2021/04/26 11:45:14;;;;;;;3.30;3.10;;;;;;;;;;5064842;28;20456;-96
2021/04/26 11:47:41;;;;;;;5.90;3.90;;;;;;;;;;5134205;23;20476;-96
2021/04/26 11:50:08;;;;;;;3.90;3.50;;;;;;;;;;5047960;28;20485;-95
2021/04/26 11:52:38;;;;;;;3.37;3.17;;;;;;;;;;5063888;28;20508;-96
2021/04/26 11:55:16;;;;;;;4.20;3.90;;;;;;;;;;5062151;28;20510;-96
2021/04/26 12:00:26;;;;;;;4.40;4.00;;;;;;;;;;5047855;28;20430;-96
2021/04/26 12:03:00;;;;;;;4.10;3.80;;;;;;;;;;5069230;28;20470;-96
2021/04/26 12:05:27;;;;;;;4.10;3.80;;;;;;;;;;5053292;28;20436;-96
2021/04/26 12:07:54;;;;;;;4.00;3.70;;;;;;;;;;5053947;28;20463;-96
2021/04/26 12:10:21;;;;;;;4.17;3.83;;;;;;;;;;5056339;28;20478;-96
2021/04/26 12:12:50;;;;;;;4.53;4.07;;;;;;;;;;5042416;28;21204;-96
2021/04/26 12:15:18;;;;;;;4.20;3.83;;;;;;;;;;5080567;22;20505;-94
2021/04/26 12:17:46;;;;;;;4.97;4.57;;;;;;;;;;5082108;22;20464;-96
2021/04/26 12:20:15;;;;;;;4.60;4.20;;;;;;;;;;5066949;28;20454;-96
2021/04/26 12:22:43;;;;;;;4.43;4.13;;;;;;;;;;5175179;22;20823;-95
2021/04/26 12:25:09;;;;;;;4.83;4.43;;;;;;;;;;5098092;22;20476;-94
2021/04/26 12:27:36;;;;;;;4.73;4.33;;;;;;;;;;5058765;28;20457;-95
2021/04/26 12:30:13;;;;;;;6.00;4.13;;;;;;;;;;5058344;28;20457;-96
2021/04/26 12:32:40;;;;;;;5.10;4.70;;;;;;;;;;5060757;28;21079;-96
2021/04/26 12:35:06;;;;;;;5.60;5.07;;;;;;;;;;5060624;28;20472;-94
2021/04/26 12:37:33;;;;;;;5.87;5.23;;;;;;;;;;5063937;28;20454;-94
2021/04/26 12:40:26;;;;;;;5.80;5.30;;;;;;;;;;5064578;28;20457;-95
2021/04/26 12:43:10;;;;;;;5.67;5.27;;;;;;;;;;5114976;22;20495;-96
2021/04/26 12:45:38;;;;;;;5.20;4.80;;;;;;;;;;5090228;22;20508;-96
2021/04/26 12:48:05;;;;;;;5.17;4.67;;;;;;;;;;5084424;28;20460;-95
2021/04/26 12:50:32;;;;;;;6.20;3.90;;;;;;;;;;5079656;28;20429;-94
2021/04/26 12:53:35;;;;;;;4.73;4.33;;;;;;;;;;5091188;28;20468;-96
2021/04/26 12:56:14;;;;;;;5.30;3.97;;;;;;;;;;5143067;23;20973;-96
2021/04/26 12:58:59;;;;;;;4.10;3.67;;;;;;;;;;5115168;22;20470;-96
2021/04/26 13:01:30;;;;;;;4.90;4.40;;;;;;;;;;5066645;28;20499;-96
2021/04/26 13:06:48;;;;;;;4.50;4.10;;;;;;;;;;5100299;22;20505;-96
2021/04/26 13:09:14;;;;;;;4.70;4.30;;;;;;;;;;5082189;22;20508;-96
2021/04/26 13:11:53;;;;;;;4.73;4.20;;;;;;;;;;5037183;28;20514;-96
2021/04/26 13:14:22;;;;;;;4.43;3.93;;;;;;;;;;5053395;28;20509;-95
2021/04/26 13:25:17;;;;;;;5.23;4.83;;;;;;;;;;5209524;22;20477;-96
2021/04/26 13:27:54;;;;;;;5.23;4.83;;;;;;;;;;5136983;23;20483;-96
2021/04/26 13:30:47;;;;;;;7.23;5.57;;;;;;;;;;5133015;22;20474;-96
2021/04/26 13:35:58;;;;;;;5.47;5.07;;;;;;;;;;2609284;22;20497;-96
2021/04/26 13:38:29;;;;;;;5.47;5.07;;;;;;;;;;5072977;28;20442;-96
2021/04/26 13:41:09;;;;;;;4.97;4.67;;;;;;;;;;5066192;28;20441;-95
2021/04/26 13:43:35;;;;;;;5.37;4.87;;;;;;;;;;5068663;28;20503;-95
2021/04/26 13:46:03;;;;;;;5.33;4.93;;;;;;;;;;5066727;28;20472;-93
2021/04/26 13:48:29;;;;;;;5.13;4.73;;;;;;;;;;5068174;28;20469;-93
2021/04/26 13:50:56;;;;;;;4.80;4.40;;;;;;;;;;5069975;28;20436;-95
2021/04/26 13:53:22;;;;;;;5.80;5.30;;;;;;;;;;5062032;28;20577;-93
2021/04/26 13:55:48;;;;;;;5.43;4.57;;;;;;;;;;5064683;28;20461;-94
2021/04/26 13:58:16;;;;;;;5.80;4.60;;;;;;;;;;5066114;28;20454;-94
2021/04/26 14:00:54;;;;;;;8.70;4.90;;;;;;;;;;5067682;28;20434;-96
2021/04/26 14:03:25;;;;;;;5.10;4.70;;;;;;;;;;5051949;28;20469;-96
2021/04/26 14:08:38;;;;;;;5.40;4.90;;;;;;;;;;5067325;28;20455;-96
2021/04/26 14:11:04;;;;;;;4.70;4.30;;;;;;;;;;5067538;28;20453;-96
2021/04/26 14:13:33;;;;;;;4.90;4.37;;;;;;;;;;5068720;28;20481;-96
2021/04/26 14:16:03;;;;;;;5.63;5.13;;;;;;;;;;5065305;28;20518;-96
2021/04/26 14:18:30;;;;;;;4.87;4.43;;;;;;;;;;5070769;28;20454;-96
2021/04/26 14:20:56;;;;;;;5.37;4.60;;;;;;;;;;5070415;28;20462;-96
2021/04/26 14:23:23;;;;;;;4.90;4.53;;;;;;;;;;5068392;28;20438;-96
2021/04/26 14:25:52;;;;;;;5.33;4.50;;;;;;;;;;5073240;28;20476;-96
2021/04/26 14:28:20;;;;;;;5.33;4.90;;;;;;;;;;5063597;28;20454;-96
2021/04/26 14:30:50;;;;;;;4.80;4.50;;;;;;;;;;5071013;28;20462;-95
2021/04/26 14:33:16;;;;;;;5.10;4.60;;;;;;;;;;5066799;28;20453;-96
2021/04/26 14:35:43;;;;;;;5.57;4.90;;;;;;;;;;5073676;28;20502;-95
2021/04/26 14:38:09;;;;;;;5.00;4.50;;;;;;;;;;5069249;28;20445;-95
2021/04/26 14:40:35;;;;;;;5.97;5.37;;;;;;;;;;5122191;22;20517;-96
2021/04/26 14:45:46;;;;;;;5.30;4.80;;;;;;;;;;5746014;22;20473;-95
2021/04/26 14:48:17;;;;;;;5.40;5.00;;;;;;;;;;5136289;22;20478;-96
2021/04/26 14:50:43;;;;;;;6.70;5.53;;;;;;;;;;5076202;23;20471;-96
2021/04/26 14:53:09;;;;;;;7.70;4.97;;;;;;;;;;5104253;28;20480;-93
2021/04/26 14:55:59;;;;;;;5.60;5.10;;;;;;;;;;5104409;28;20441;-96
2021/04/26 14:58:28;;;;;;;5.93;5.13;;;;;;;;;;5105780;28;20448;-96
2021/04/26 15:00:56;;;;;;;5.73;5.23;;;;;;;;;;5103376;28;20464;-96
2021/04/26 15:05:48;;;;;;;5.13;4.70;;;;;;;;;;5179838;22;20482;-94
2021/04/26 15:08:14;;;;;;;5.90;4.67;;;;;;;;;;5125183;28;20443;-95
2021/04/26 15:10:40;;;;;;;6.17;5.60;;;;;;;;;;5123953;28;20542;-94
2021/04/26 15:13:07;;;;;;;5.60;5.03;;;;;;;;;;5131784;28;20471;-94
2021/04/26 15:15:33;;;;;;;5.30;4.90;;;;;;;;;;5121723;28;20448;-94
2021/04/26 15:17:59;;;;;;;5.60;5.20;;;;;;;;;;5126218;28;20452;-93
2021/04/26 15:20:25;;;;;;;5.30;4.90;;;;;;;;;;5124143;28;20455;-95
2021/04/26 15:23:12;;;;;;;6.30;5.33;;;;;;;;;;5122220;28;20446;-96
2021/04/26 15:25:44;;;;;;;5.90;5.40;;;;;;;;;;5122152;28;21385;-96
2021/04/26 15:28:19;;;;;;;5.83;5.33;;;;;;;;;;5124890;28;20605;-96
2021/04/26 15:30:46;;;;;;;5.63;4.87;;;;;;;;;;5104493;28;20439;-95
2021/04/26 15:33:15;;;;;;;5.37;4.77;;;;;;;;;;5119808;28;20487;-94
2021/04/26 15:35:45;;;;;;;5.37;4.97;;;;;;;;;;5125391;27;20452;-96
2021/04/26 15:38:11;;;;;;;6.80;5.30;;;;;;;;;;5118040;28;20472;-95
2021/04/26 15:40:40;;;;;;;7.40;4.70;;;;;;;;;;5119755;28;20443;-96
2021/04/26 15:43:07;;;;;;;6.47;4.83;;;;;;;;;;5121785;28;20452;-94
2021/04/26 15:45:33;;;;;;;4.83;4.43;;;;;;;;;;5120809;28;20450;-96
2021/04/26 15:48:01;;;;;;;6.07;5.47;;;;;;;;;;5119596;28;20982;-96
2021/04/26 15:50:28;;;;;;;7.80;5.20;;;;;;;;;;5119446;28;20471;-95
2021/04/26 15:52:56;;;;;;;5.10;4.70;;;;;;;;;;5115196;28;20491;-95
2021/04/26 15:55:22;;;;;;;7.07;4.67;;;;;;;;;;5125618;28;20443;-93
2021/04/26 15:57:50;;;;;;;5.33;4.83;;;;;;;;;;5115058;28;20674;-93
2021/04/26 16:00:16;;;;;;;5.50;4.40;;;;;;;;;;5124326;28;20443;-94
2021/04/26 16:02:43;;;;;;;5.50;5.00;;;;;;;;;;5123386;28;20463;-94
2021/04/26 16:05:11;;;;;;;7.40;4.90;;;;;;;;;;5123838;28;20479;-94
2021/04/26 16:07:38;;;;;;;6.40;5.40;;;;;;;;;;5125332;28;20466;-95
2021/04/26 16:10:04;;;;;;;6.43;4.77;;;;;;;;;;5127226;28;20447;-94
2021/04/26 16:12:30;;;;;;;5.70;5.20;;;;;;;;;;5123946;28;20487;-93
2021/04/26 16:14:57;;;;;;;6.30;4.77;;;;;;;;;;5126600;28;20458;-96
2021/04/26 16:17:23;;;;;;;6.20;5.00;;;;;;;;;;5125792;28;20452;-96
2021/04/26 16:19:49;;;;;;;6.20;4.63;;;;;;;;;;5126372;28;20429;-96
2021/04/26 16:22:15;;;;;;;6.50;5.23;;;;;;;;;;5126591;28;20451;-94
2021/04/26 16:24:41;;;;;;;5.63;5.00;;;;;;;;;;5119512;28;20461;-95
2021/04/26 16:27:07;;;;;;;6.40;4.97;;;;;;;;;;5123736;28;20451;-93
2021/04/26 16:29:36;;;;;;;6.20;4.90;;;;;;;;;;5122326;28;20451;-95
2021/04/26 16:32:04;;;;;;;6.13;5.53;;;;;;;;;;5124661;28;20505;-96
2021/04/26 16:34:30;;;;;;;5.33;4.80;;;;;;;;;;5123809;28;20525;-95
2021/04/26 16:36:57;;;;;;;6.40;5.17;;;;;;;;;;5124084;28;20439;-93
2021/04/26 16:39:23;;;;;;;5.83;5.30;;;;;;;;;;5122724;28;20478;-95
2021/04/26 16:41:49;;;;;;;6.60;5.23;;;;;;;;;;5122700;28;20470;-96
2021/04/26 16:44:18;;;;;;;7.87;5.50;;;;;;;;;;5120609;28;20460;-92
2021/04/26 16:46:44;;;;;;;6.30;5.70;;;;;;;;;;5124927;28;20483;-94
2021/04/26 16:49:11;;;;;;;6.97;6.27;;;;;;;;;;5128750;28;20493;-93
2021/04/26 16:51:37;;;;;;;6.40;5.80;;;;;;;;;;5124875;28;20446;-94
2021/04/26 16:54:04;;;;;;;6.10;5.50;;;;;;;;;;5122620;28;20497;-94
2021/04/26 16:56:30;;;;;;;8.47;5.43;;;;;;;;;;5123345;28;20449;-96
2021/04/26 16:58:56;;;;;;;9.27;5.87;;;;;;;;;;5122669;28;20483;-96
2021/04/26 17:01:22;;;;;;;6.07;5.50;;;;;;;;;;5124310;28;20455;-96
2021/04/26 17:03:48;;;;;;;6.23;5.43;;;;;;;;;;5122150;28;20534;-92
2021/04/26 17:06:15;;;;;;;6.57;5.87;;;;;;;;;;5118256;28;20464;-95
2021/04/26 17:08:41;;;;;;;6.23;5.47;;;;;;;;;;5122789;28;20447;-92
2021/04/26 17:11:07;;;;;;;8.73;5.63;;;;;;;;;;5120017;28;20456;-94
2021/04/26 17:13:33;;;;;;;7.20;6.50;;;;;;;;;;5123100;28;20558;-94
2021/04/26 17:16:02;;;;;;;5.50;5.00;;;;;;;;;;5122816;28;20452;-94
2021/04/26 17:18:28;;;;;;;6.20;5.63;;;;;;;;;;5123566;28;20453;-92
2021/04/26 17:20:54;;;;;;;6.93;6.10;;;;;;;;;;5120141;28;20476;-90
2021/04/26 17:23:24;;;;;;;5.83;5.40;;;;;;;;;;5124888;28;20512;-95
2021/04/26 17:25:50;;;;;;;7.90;5.83;;;;;;;;;;5121454;28;20477;-91
2021/04/26 17:28:16;;;;;;;6.77;5.70;;;;;;;;;;5120760;28;20442;-92
2021/04/26 17:30:42;;;;;;;6.60;5.80;;;;;;;;;;5116943;28;20450;-93